sensor_id;sensor_type;location;lat;lon;timestamp;pressure;altitude;pressure_sealevel;temperature;humidity
76484;BME280;65318;-33.924;18.406;2022-12-18T00:01:39;99962.73;;;29.05;34.72
76484;BME280;65318;-33.924;18.406;2022-12-18T00:04:06;99969.95;;;29.10;34.95
76484;BME280;65318;-33.924;18.406;2022-12-18T00:06:30;99959.72;;;28.61;35.55
76484;BME280;65318;-33.924;18.406;2022-12-18T00:08:57;99952.16;;;29.34;35.01
76484;BME280;65318;-33.924;18.406;2022-12-18T00:11:23;99943.28;;;28.60;35.59
76484;BME280;65318;-33.924;18.406;2022-12-18T00:13:47;99943.52;;;28.50;35.58
76484;BME280;65318;-33.924;18.406;2022-12-18T00:16:14;99930.98;;;28.16;35.85
76484;BME280;65318;-33.924;18.406;2022-12-18T00:18:37;99936.47;;;28.30;35.90
76484;BME280;65318;-33.924;18.406;2022-12-18T00:21:06;99943.18;;;27.58;36.50
76484;BME280;65318;-33.924;18.406;2022-12-18T00:23:29;99939.69;;;28.39;35.87
76484;BME280;65318;-33.924;18.406;2022-12-18T00:25:54;99936.86;;;29.29;34.53
76484;BME280;65318;-33.924;18.406;2022-12-18T00:28:19;99922.36;;;28.65;34.94
76484;BME280;65318;-33.924;18.406;2022-12-18T00:30:45;99933.81;;;28.07;35.88
76484;BME280;65318;-33.924;18.406;2022-12-18T00:33:10;99924.98;;;28.52;35.16
76484;BME280;65318;-33.924;18.406;2022-12-18T00:35:36;99938.77;;;29.26;34.88
76484;BME280;65318;-33.924;18.406;2022-12-18T00:38:01;99929.49;;;28.54;35.15
76484;BME280;65318;-33.924;18.406;2022-12-18T00:40:27;99942.91;;;28.93;35.02
76484;BME280;65318;-33.924;18.406;2022-12-18T00:42:52;99931.77;;;29.43;34.72
76484;BME280;65318;-33.924;18.406;2022-12-18T00:45:18;99932.00;;;29.51;34.39
76484;BME280;65318;-33.924;18.406;2022-12-18T00:47:43;99927.23;;;28.71;35.00
76484;BME280;65318;-33.924;18.406;2022-12-18T00:50:09;99929.57;;;29.16;34.78
76484;BME280;65318;-33.924;18.406;2022-12-18T00:52:35;99930.20;;;29.35;34.60
76484;BME280;65318;-33.924;18.406;2022-12-18T00:55:00;99938.13;;;29.30;34.92
76484;BME280;65318;-33.924;18.406;2022-12-18T00:57:26;99931.52;;;29.47;34.49
76484;BME280;65318;-33.924;18.406;2022-12-18T00:59:51;99935.13;;;29.23;34.52
76484;BME280;65318;-33.924;18.406;2022-12-18T01:02:17;99939.75;;;29.22;34.83
76484;BME280;65318;-33.924;18.406;2022-12-18T01:04:42;99932.06;;;29.04;34.75
76484;BME280;65318;-33.924;18.406;2022-12-18T01:07:07;99922.02;;;29.31;34.74
76484;BME280;65318;-33.924;18.406;2022-12-18T01:09:33;99931.59;;;29.07;34.76
76484;BME280;65318;-33.924;18.406;2022-12-18T01:11:58;99925.05;;;29.25;34.59
76484;BME280;65318;-33.924;18.406;2022-12-18T01:14:24;99924.02;;;29.30;34.85
76484;BME280;65318;-33.924;18.406;2022-12-18T01:16:49;99916.07;;;29.58;34.81
76484;BME280;65318;-33.924;18.406;2022-12-18T01:19:15;99916.92;;;29.10;34.78
76484;BME280;65318;-33.924;18.406;2022-12-18T01:21:40;99919.19;;;29.07;35.13
76484;BME280;65318;-33.924;18.406;2022-12-18T01:24:06;99914.43;;;29.02;34.97
76484;BME280;65318;-33.924;18.406;2022-12-18T01:26:31;99917.01;;;28.87;35.16
76484;BME280;65318;-33.924;18.406;2022-12-18T01:28:57;99913.81;;;29.66;34.85
76484;BME280;65318;-33.924;18.406;2022-12-18T01:31:25;99915.61;;;29.06;35.24
76484;BME280;65318;-33.924;18.406;2022-12-18T01:33:48;99913.44;;;28.53;35.59
76484;BME280;65318;-33.924;18.406;2022-12-18T01:36:18;99912.34;;;28.60;35.57
76484;BME280;65318;-33.924;18.406;2022-12-18T01:38:38;99916.63;;;28.73;35.38
76484;BME280;65318;-33.924;18.406;2022-12-18T01:41:04;99913.13;;;29.06;35.32
76484;BME280;65318;-33.924;18.406;2022-12-18T01:43:42;99908.47;;;29.35;34.92
76484;BME280;65318;-33.924;18.406;2022-12-18T01:45:54;99907.35;;;29.28;35.04
76484;BME280;65318;-33.924;18.406;2022-12-18T01:48:20;99905.30;;;28.83;35.29
76484;BME280;65318;-33.924;18.406;2022-12-18T01:50:45;99908.02;;;29.06;35.33
76484;BME280;65318;-33.924;18.406;2022-12-18T01:53:14;99906.83;;;29.26;35.10
76484;BME280;65318;-33.924;18.406;2022-12-18T01:55:40;99904.89;;;29.14;35.24
76484;BME280;65318;-33.924;18.406;2022-12-18T01:58:02;99902.10;;;29.19;35.19
76484;BME280;65318;-33.924;18.406;2022-12-18T02:00:28;99900.59;;;29.28;35.09
76484;BME280;65318;-33.924;18.406;2022-12-18T02:02:53;99901.93;;;29.52;35.10
76484;BME280;65318;-33.924;18.406;2022-12-18T02:05:21;99905.92;;;28.96;35.18
76484;BME280;65318;-33.924;18.406;2022-12-18T02:07:50;99908.65;;;29.18;35.23
76484;BME280;65318;-33.924;18.406;2022-12-18T02:10:14;99911.94;;;28.65;35.57
76484;BME280;65318;-33.924;18.406;2022-12-18T02:12:43;99911.31;;;28.95;35.24
76484;BME280;65318;-33.924;18.406;2022-12-18T02:15:05;99913.40;;;29.10;35.30
76484;BME280;65318;-33.924;18.406;2022-12-18T02:17:30;99910.97;;;28.87;35.32
76484;BME280;65318;-33.924;18.406;2022-12-18T02:20:02;99908.52;;;29.04;35.40
76484;BME280;65318;-33.924;18.406;2022-12-18T02:22:26;99910.90;;;29.05;35.38
76484;BME280;65318;-33.924;18.406;2022-12-18T02:24:48;99919.78;;;28.71;35.53
76484;BME280;65318;-33.924;18.406;2022-12-18T02:27:09;99925.74;;;28.96;35.47
76484;BME280;65318;-33.924;18.406;2022-12-18T02:29:35;99927.84;;;28.62;35.67
76484;BME280;65318;-33.924;18.406;2022-12-18T02:32:03;99926.54;;;29.24;35.48
76484;BME280;65318;-33.924;18.406;2022-12-18T02:34:27;99928.54;;;29.05;35.42
76484;BME280;65318;-33.924;18.406;2022-12-18T02:36:50;99931.69;;;29.19;35.57
76484;BME280;65318;-33.924;18.406;2022-12-18T02:39:16;99934.21;;;28.79;35.77
76484;BME280;65318;-33.924;18.406;2022-12-18T02:41:40;99936.45;;;28.83;35.44
76484;BME280;65318;-33.924;18.406;2022-12-18T02:44:09;99936.75;;;28.53;35.79
76484;BME280;65318;-33.924;18.406;2022-12-18T02:46:34;99936.45;;;28.82;35.78
76484;BME280;65318;-33.924;18.406;2022-12-18T02:49:02;99935.25;;;28.79;35.80
76484;BME280;65318;-33.924;18.406;2022-12-18T02:51:27;99936.80;;;28.57;35.75
76484;BME280;65318;-33.924;18.406;2022-12-18T02:53:53;99939.58;;;28.57;35.77
76484;BME280;65318;-33.924;18.406;2022-12-18T02:56:15;99935.33;;;28.51;36.17
76484;BME280;65318;-33.924;18.406;2022-12-18T02:58:45;99938.98;;;28.54;35.88
76484;BME280;65318;-33.924;18.406;2022-12-18T03:01:08;99944.15;;;29.08;35.52
76484;BME280;65318;-33.924;18.406;2022-12-18T03:03:34;99948.12;;;28.79;35.87
76484;BME280;65318;-33.924;18.406;2022-12-18T03:06:00;99951.68;;;28.77;35.90
76484;BME280;65318;-33.924;18.406;2022-12-18T03:08:22;99956.00;;;28.49;36.24
76484;BME280;65318;-33.924;18.406;2022-12-18T03:10:49;99957.72;;;28.70;36.00
76484;BME280;65318;-33.924;18.406;2022-12-18T03:13:13;99958.47;;;28.75;35.94
76484;BME280;65318;-33.924;18.406;2022-12-18T03:15:38;99962.18;;;28.47;36.27
76484;BME280;65318;-33.924;18.406;2022-12-18T03:18:06;99964.98;;;28.74;35.97
76484;BME280;65318;-33.924;18.406;2022-12-18T03:20:29;99963.45;;;28.65;36.11
76484;BME280;65318;-33.924;18.406;2022-12-18T03:22:56;99963.95;;;28.57;36.43
76484;BME280;65318;-33.924;18.406;2022-12-18T03:25:19;99962.50;;;28.71;36.33
76484;BME280;65318;-33.924;18.406;2022-12-18T03:27:46;99962.17;;;29.18;35.77
76484;BME280;65318;-33.924;18.406;2022-12-18T03:30:11;99968.70;;;28.83;36.15
76484;BME280;65318;-33.924;18.406;2022-12-18T03:32:40;99973.66;;;28.59;35.90
76484;BME280;65318;-33.924;18.406;2022-12-18T03:35:02;99977.55;;;28.93;36.01
76484;BME280;65318;-33.924;18.406;2022-12-18T03:37:25;99985.52;;;28.62;36.21
76484;BME280;65318;-33.924;18.406;2022-12-18T03:39:51;99993.20;;;28.85;36.15
76484;BME280;65318;-33.924;18.406;2022-12-18T03:42:21;99997.86;;;28.35;36.21
76484;BME280;65318;-33.924;18.406;2022-12-18T03:44:46;99998.86;;;28.98;36.06
76484;BME280;65318;-33.924;18.406;2022-12-18T03:47:10;100005.68;;;28.18;36.45
76484;BME280;65318;-33.924;18.406;2022-12-18T03:49:36;100005.89;;;28.74;36.36
76484;BME280;65318;-33.924;18.406;2022-12-18T03:52:02;100006.30;;;28.73;36.09
76484;BME280;65318;-33.924;18.406;2022-12-18T03:54:24;100007.07;;;28.70;36.12
76484;BME280;65318;-33.924;18.406;2022-12-18T03:56:54;100008.50;;;27.54;37.84
76484;BME280;65318;-33.924;18.406;2022-12-18T03:59:15;100008.96;;;28.72;36.46
76484;BME280;65318;-33.924;18.406;2022-12-18T04:01:42;100014.19;;;28.74;36.17
76484;BME280;65318;-33.924;18.406;2022-12-18T04:04:06;100020.75;;;28.89;36.06
76484;BME280;65318;-33.924;18.406;2022-12-18T04:06:31;100024.24;;;29.02;36.16
76484;BME280;65318;-33.924;18.406;2022-12-18T04:08:57;100027.65;;;28.46;36.57
76484;BME280;65318;-33.924;18.406;2022-12-18T04:11:21;100029.49;;;28.87;35.84
76484;BME280;65318;-33.924;18.406;2022-12-18T04:13:47;100034.69;;;29.04;35.92
76484;BME280;65318;-33.924;18.406;2022-12-18T04:16:12;100040.50;;;29.21;36.02
76484;BME280;65318;-33.924;18.406;2022-12-18T04:18:38;100047.61;;;28.34;36.39
76484;BME280;65318;-33.924;18.406;2022-12-18T04:21:05;100047.56;;;29.37;35.18
76484;BME280;65318;-33.924;18.406;2022-12-18T04:23:29;100054.95;;;29.72;34.89
76484;BME280;65318;-33.924;18.406;2022-12-18T04:25:54;100060.88;;;29.32;35.69
76484;BME280;65318;-33.924;18.406;2022-12-18T04:28:20;100062.48;;;30.09;34.48
76484;BME280;65318;-33.924;18.406;2022-12-18T04:30:48;100066.93;;;30.38;34.19
76484;BME280;65318;-33.924;18.406;2022-12-18T04:33:11;100069.80;;;29.70;34.41
76484;BME280;65318;-33.924;18.406;2022-12-18T04:35:36;100072.12;;;30.09;34.25
76484;BME280;65318;-33.924;18.406;2022-12-18T04:38:01;100072.31;;;30.23;33.87
76484;BME280;65318;-33.924;18.406;2022-12-18T04:40:27;100078.58;;;30.66;33.21
76484;BME280;65318;-33.924;18.406;2022-12-18T04:42:52;100088.04;;;29.97;33.69
76484;BME280;65318;-33.924;18.406;2022-12-18T04:45:17;100094.48;;;30.72;32.90
76484;BME280;65318;-33.924;18.406;2022-12-18T04:47:43;100095.79;;;30.99;32.91
76484;BME280;65318;-33.924;18.406;2022-12-18T04:50:09;100101.21;;;30.98;32.74
76484;BME280;65318;-33.924;18.406;2022-12-18T04:52:34;100107.58;;;31.00;32.53
76484;BME280;65318;-33.924;18.406;2022-12-18T04:54:59;100114.19;;;31.38;32.24
76484;BME280;65318;-33.924;18.406;2022-12-18T04:57:25;100114.68;;;32.01;31.86
76484;BME280;65318;-33.924;18.406;2022-12-18T04:59:50;100114.18;;;31.39;32.24
76484;BME280;65318;-33.924;18.406;2022-12-18T05:02:16;100116.30;;;31.56;32.07
76484;BME280;65318;-33.924;18.406;2022-12-18T05:04:41;100122.25;;;31.15;32.29
76484;BME280;65318;-33.924;18.406;2022-12-18T05:07:07;100124.14;;;31.98;31.45
76484;BME280;65318;-33.924;18.406;2022-12-18T05:09:32;100128.93;;;32.13;31.57
76484;BME280;65318;-33.924;18.406;2022-12-18T05:11:58;100132.94;;;31.39;31.84
76484;BME280;65318;-33.924;18.406;2022-12-18T05:14:23;100131.14;;;31.24;32.27
76484;BME280;65318;-33.924;18.406;2022-12-18T05:16:49;100135.70;;;31.70;32.01
76484;BME280;65318;-33.924;18.406;2022-12-18T05:19:14;100139.50;;;31.12;32.40
76484;BME280;65318;-33.924;18.406;2022-12-18T05:21:40;100143.96;;;30.82;32.81
76484;BME280;65318;-33.924;18.406;2022-12-18T05:24:06;100149.18;;;31.83;31.86
76484;BME280;65318;-33.924;18.406;2022-12-18T05:26:31;100150.99;;;30.95;33.50
76484;BME280;65318;-33.924;18.406;2022-12-18T05:28:57;100155.09;;;31.07;32.78
76484;BME280;65318;-33.924;18.406;2022-12-18T05:31:22;100158.50;;;31.48;32.72
76484;BME280;65318;-33.924;18.406;2022-12-18T05:33:47;100161.79;;;30.73;33.47
76484;BME280;65318;-33.924;18.406;2022-12-18T05:36:13;100163.51;;;30.86;32.95
76484;BME280;65318;-33.924;18.406;2022-12-18T05:38:39;100162.54;;;30.50;33.07
76484;BME280;65318;-33.924;18.406;2022-12-18T05:41:06;100163.31;;;30.89;32.91
76484;BME280;65318;-33.924;18.406;2022-12-18T05:43:30;100165.34;;;30.65;33.12
76484;BME280;65318;-33.924;18.406;2022-12-18T05:45:56;100164.67;;;31.13;32.74
76484;BME280;65318;-33.924;18.406;2022-12-18T05:48:21;100163.75;;;30.84;32.47
76484;BME280;65318;-33.924;18.406;2022-12-18T05:50:48;100165.50;;;31.09;32.24
76484;BME280;65318;-33.924;18.406;2022-12-18T05:53:14;100166.01;;;32.42;30.73
76484;BME280;65318;-33.924;18.406;2022-12-18T05:55:38;100169.80;;;31.93;31.01
76484;BME280;65318;-33.924;18.406;2022-12-18T05:58:03;100171.52;;;31.47;31.45
76484;BME280;65318;-33.924;18.406;2022-12-18T06:00:28;100166.77;;;30.89;32.19
76484;BME280;65318;-33.924;18.406;2022-12-18T06:02:53;100168.68;;;32.36;30.59
76484;BME280;65318;-33.924;18.406;2022-12-18T06:05:20;100172.92;;;31.44;31.42
76484;BME280;65318;-33.924;18.406;2022-12-18T06:07:44;100170.23;;;30.87;32.21
76484;BME280;65318;-33.924;18.406;2022-12-18T06:10:10;100172.78;;;30.32;32.36
76484;BME280;65318;-33.924;18.406;2022-12-18T06:12:35;100174.23;;;31.64;31.28
76484;BME280;65318;-33.924;18.406;2022-12-18T06:15:01;100171.89;;;31.61;31.26
76484;BME280;65318;-33.924;18.406;2022-12-18T06:17:28;100169.56;;;30.83;32.17
76484;BME280;65318;-33.924;18.406;2022-12-18T06:19:51;100172.56;;;31.76;31.12
76484;BME280;65318;-33.924;18.406;2022-12-18T06:22:17;100172.44;;;32.45;30.55
76484;BME280;65318;-33.924;18.406;2022-12-18T06:24:42;100174.62;;;31.21;31.64
76484;BME280;65318;-33.924;18.406;2022-12-18T06:27:08;100172.71;;;32.25;30.60
76484;BME280;65318;-33.924;18.406;2022-12-18T06:29:33;100172.56;;;31.94;30.87
76484;BME280;65318;-33.924;18.406;2022-12-18T06:31:59;100176.30;;;31.12;31.59
76484;BME280;65318;-33.924;18.406;2022-12-18T06:34:24;100175.35;;;29.41;33.21
76484;BME280;65318;-33.924;18.406;2022-12-18T06:36:50;100176.52;;;32.01;31.25
76484;BME280;65318;-33.924;18.406;2022-12-18T06:39:15;100173.24;;;31.56;31.12
76484;BME280;65318;-33.924;18.406;2022-12-18T06:41:40;100176.70;;;31.60;31.28
76484;BME280;65318;-33.924;18.406;2022-12-18T06:44:06;100179.47;;;31.81;31.42
76484;BME280;65318;-33.924;18.406;2022-12-18T06:46:31;100174.05;;;32.22;30.97
76484;BME280;65318;-33.924;18.406;2022-12-18T06:48:57;100173.92;;;32.53;30.71
76484;BME280;65318;-33.924;18.406;2022-12-18T06:51:23;100175.99;;;32.78;30.37
76484;BME280;65318;-33.924;18.406;2022-12-18T06:53:48;100174.45;;;33.36;29.85
76484;BME280;65318;-33.924;18.406;2022-12-18T06:56:13;100174.84;;;33.14;29.92
76484;BME280;65318;-33.924;18.406;2022-12-18T06:58:39;100172.07;;;32.95;30.22
76484;BME280;65318;-33.924;18.406;2022-12-18T07:01:06;100172.18;;;33.39;29.91
76484;BME280;65318;-33.924;18.406;2022-12-18T07:03:30;100164.10;;;33.17;29.64
76484;BME280;65318;-33.924;18.406;2022-12-18T07:05:55;100156.33;;;34.04;29.25
76484;BME280;65318;-33.924;18.406;2022-12-18T07:08:20;100154.76;;;33.66;29.42
76484;BME280;65318;-33.924;18.406;2022-12-18T07:10:46;100151.16;;;33.96;29.36
76484;BME280;65318;-33.924;18.406;2022-12-18T07:13:11;100147.10;;;33.55;29.38
76484;BME280;65318;-33.924;18.406;2022-12-18T07:15:37;100149.08;;;34.17;29.01
76484;BME280;65318;-33.924;18.406;2022-12-18T07:18:02;100153.33;;;34.23;29.26
76484;BME280;65318;-33.924;18.406;2022-12-18T07:20:27;100153.88;;;34.06;28.96
76484;BME280;65318;-33.924;18.406;2022-12-18T07:22:53;100151.50;;;34.00;29.40
76484;BME280;65318;-33.924;18.406;2022-12-18T07:25:18;100151.88;;;33.88;29.11
76484;BME280;65318;-33.924;18.406;2022-12-18T07:27:43;100149.65;;;33.69;29.32
76484;BME280;65318;-33.924;18.406;2022-12-18T07:30:10;100150.20;;;33.42;29.55
76484;BME280;65318;-33.924;18.406;2022-12-18T07:32:34;100151.85;;;34.02;28.99
76484;BME280;65318;-33.924;18.406;2022-12-18T07:34:59;100151.27;;;33.71;29.53
76484;BME280;65318;-33.924;18.406;2022-12-18T07:37:25;100154.98;;;33.68;29.38
76484;BME280;65318;-33.924;18.406;2022-12-18T07:39:50;100154.34;;;33.68;29.36
76484;BME280;65318;-33.924;18.406;2022-12-18T07:42:16;100152.69;;;34.12;29.18
76484;BME280;65318;-33.924;18.406;2022-12-18T07:44:41;100152.83;;;33.88;29.15
76484;BME280;65318;-33.924;18.406;2022-12-18T07:47:07;100152.74;;;34.12;29.15
76484;BME280;65318;-33.924;18.406;2022-12-18T07:49:32;100151.93;;;34.26;29.24
76484;BME280;65318;-33.924;18.406;2022-12-18T07:51:57;100151.52;;;34.13;28.93
76484;BME280;65318;-33.924;18.406;2022-12-18T07:54:23;100147.29;;;34.10;28.93
76484;BME280;65318;-33.924;18.406;2022-12-18T07:56:48;100144.47;;;34.32;28.90
76484;BME280;65318;-33.924;18.406;2022-12-18T07:59:13;100147.53;;;33.75;29.24
76484;BME280;65318;-33.924;18.406;2022-12-18T08:01:39;100147.86;;;33.95;29.09
76484;BME280;65318;-33.924;18.406;2022-12-18T08:04:05;100148.46;;;33.63;29.42
76484;BME280;65318;-33.924;18.406;2022-12-18T08:06:30;100151.19;;;34.05;29.24
76484;BME280;65318;-33.924;18.406;2022-12-18T08:08:56;100153.66;;;34.44;29.13
76484;BME280;65318;-33.924;18.406;2022-12-18T08:11:21;100151.37;;;33.89;29.22
76484;BME280;65318;-33.924;18.406;2022-12-18T08:13:46;100154.92;;;34.20;29.19
76484;BME280;65318;-33.924;18.406;2022-12-18T08:16:12;100159.67;;;33.57;29.49
76484;BME280;65318;-33.924;18.406;2022-12-18T08:18:38;100163.75;;;34.09;29.06
76484;BME280;65318;-33.924;18.406;2022-12-18T08:21:07;100170.36;;;34.14;29.20
76484;BME280;65318;-33.924;18.406;2022-12-18T08:23:28;100166.42;;;34.07;29.31
76484;BME280;65318;-33.924;18.406;2022-12-18T08:25:53;100170.05;;;33.72;29.45
76484;BME280;65318;-33.924;18.406;2022-12-18T08:28:19;100170.27;;;33.83;29.37
76484;BME280;65318;-33.924;18.406;2022-12-18T08:30:44;100171.08;;;34.27;29.43
76484;BME280;65318;-33.924;18.406;2022-12-18T08:33:09;100165.78;;;33.36;29.81
76484;BME280;65318;-33.924;18.406;2022-12-18T08:35:36;100168.68;;;33.76;29.45
76484;BME280;65318;-33.924;18.406;2022-12-18T08:38:00;100169.08;;;33.83;29.66
76484;BME280;65318;-33.924;18.406;2022-12-18T08:40:26;100170.49;;;33.60;29.67
76484;BME280;65318;-33.924;18.406;2022-12-18T08:42:52;100171.54;;;33.67;29.64
76484;BME280;65318;-33.924;18.406;2022-12-18T08:45:17;100174.70;;;33.50;30.00
76484;BME280;65318;-33.924;18.406;2022-12-18T08:47:42;100172.01;;;33.64;29.82
76484;BME280;65318;-33.924;18.406;2022-12-18T08:50:09;100172.91;;;33.61;29.93
76484;BME280;65318;-33.924;18.406;2022-12-18T08:52:33;100170.17;;;33.98;29.78
76484;BME280;65318;-33.924;18.406;2022-12-18T08:54:59;100167.52;;;33.76;29.73
76484;BME280;65318;-33.924;18.406;2022-12-18T08:57:24;100170.83;;;33.79;29.90
76484;BME280;65318;-33.924;18.406;2022-12-18T08:59:49;100171.81;;;33.96;29.53
76484;BME280;65318;-33.924;18.406;2022-12-18T09:02:15;100169.41;;;33.76;29.72
76484;BME280;65318;-33.924;18.406;2022-12-18T09:04:40;100176.11;;;33.19;30.47
76484;BME280;65318;-33.924;18.406;2022-12-18T09:07:06;100167.44;;;34.07;29.40
76484;BME280;65318;-33.924;18.406;2022-12-18T09:09:31;100166.80;;;33.64;29.83
76484;BME280;65318;-33.924;18.406;2022-12-18T09:11:56;100165.83;;;34.20;29.30
76484;BME280;65318;-33.924;18.406;2022-12-18T09:14:22;100168.81;;;33.95;29.56
76484;BME280;65318;-33.924;18.406;2022-12-18T09:16:47;100166.53;;;33.97;29.78
76484;BME280;65318;-33.924;18.406;2022-12-18T09:19:13;100167.33;;;32.98;30.21
76484;BME280;65318;-33.924;18.406;2022-12-18T09:21:38;100165.58;;;33.83;29.89
76484;BME280;65318;-33.924;18.406;2022-12-18T09:24:05;100167.96;;;33.59;30.13
76484;BME280;65318;-33.924;18.406;2022-12-18T09:26:29;100165.14;;;33.44;29.84
76484;BME280;65318;-33.924;18.406;2022-12-18T09:28:55;100166.18;;;33.85;29.91
76484;BME280;65318;-33.924;18.406;2022-12-18T09:31:22;100162.72;;;34.12;29.60
76484;BME280;65318;-33.924;18.406;2022-12-18T09:33:46;100162.86;;;33.98;29.73
76484;BME280;65318;-33.924;18.406;2022-12-18T09:36:13;100166.62;;;33.50;30.21
76484;BME280;65318;-33.924;18.406;2022-12-18T09:38:36;100164.94;;;34.11;29.64
76484;BME280;65318;-33.924;18.406;2022-12-18T09:41:06;100164.40;;;34.01;29.70
76484;BME280;65318;-33.924;18.406;2022-12-18T09:43:34;100167.87;;;33.77;29.70
76484;BME280;65318;-33.924;18.406;2022-12-18T09:45:56;100168.93;;;34.40;29.38
76484;BME280;65318;-33.924;18.406;2022-12-18T09:48:21;100167.15;;;33.73;29.96
76484;BME280;65318;-33.924;18.406;2022-12-18T09:50:44;100163.44;;;33.65;30.04
76484;BME280;65318;-33.924;18.406;2022-12-18T09:53:14;100165.33;;;33.31;30.38
76484;BME280;65318;-33.924;18.406;2022-12-18T09:55:37;100156.79;;;34.08;29.89
76484;BME280;65318;-33.924;18.406;2022-12-18T09:58:06;100154.84;;;33.87;29.86
76484;BME280;65318;-33.924;18.406;2022-12-18T10:00:25;100155.80;;;34.49;29.31
76484;BME280;65318;-33.924;18.406;2022-12-18T10:02:53;100150.58;;;33.94;29.85
76484;BME280;65318;-33.924;18.406;2022-12-18T10:05:20;100150.55;;;34.41;29.40
76484;BME280;65318;-33.924;18.406;2022-12-18T10:07:51;100146.40;;;33.91;29.81
76484;BME280;65318;-33.924;18.406;2022-12-18T10:10:14;100141.66;;;33.86;29.90
76484;BME280;65318;-33.924;18.406;2022-12-18T10:12:37;100134.30;;;34.24;29.53
76484;BME280;65318;-33.924;18.406;2022-12-18T10:15:03;100134.63;;;34.53;29.24
76484;BME280;65318;-33.924;18.406;2022-12-18T10:17:26;100133.30;;;34.22;29.57
76484;BME280;65318;-33.924;18.406;2022-12-18T10:19:52;100134.18;;;34.09;29.64
76484;BME280;65318;-33.924;18.406;2022-12-18T10:22:22;100134.91;;;33.76;30.00
76484;BME280;65318;-33.924;18.406;2022-12-18T10:24:43;100130.85;;;34.03;29.77
76484;BME280;65318;-33.924;18.406;2022-12-18T10:27:12;100129.62;;;33.99;30.01
76484;BME280;65318;-33.924;18.406;2022-12-18T10:29:30;100132.66;;;34.15;29.68
76484;BME280;65318;-33.924;18.406;2022-12-18T10:31:55;100126.73;;;33.65;30.14
76484;BME280;65318;-33.924;18.406;2022-12-18T10:34:20;100123.63;;;33.61;30.09
76484;BME280;65318;-33.924;18.406;2022-12-18T10:36:47;100125.25;;;34.32;29.66
76484;BME280;65318;-33.924;18.406;2022-12-18T10:39:17;100123.16;;;33.78;29.98
76484;BME280;65318;-33.924;18.406;2022-12-18T10:41:36;100120.33;;;34.01;29.77
76484;BME280;65318;-33.924;18.406;2022-12-18T10:44:11;100118.88;;;33.59;30.10
76484;BME280;65318;-33.924;18.406;2022-12-18T10:46:27;100112.14;;;33.69;30.07
76484;BME280;65318;-33.924;18.406;2022-12-18T10:48:54;100115.01;;;33.37;30.33
76484;BME280;65318;-33.924;18.406;2022-12-18T10:51:24;100108.73;;;33.91;29.85
76484;BME280;65318;-33.924;18.406;2022-12-18T10:53:52;100105.42;;;33.63;30.06
76484;BME280;65318;-33.924;18.406;2022-12-18T10:56:10;100105.03;;;34.08;29.43
76484;BME280;65318;-33.924;18.406;2022-12-18T10:58:35;100103.80;;;34.07;29.61
76484;BME280;65318;-33.924;18.406;2022-12-18T11:01:09;100101.95;;;34.03;29.66
76484;BME280;65318;-33.924;18.406;2022-12-18T11:03:32;100099.32;;;33.36;30.08
76484;BME280;65318;-33.924;18.406;2022-12-18T11:06:01;100096.46;;;33.87;29.84
76484;BME280;65318;-33.924;18.406;2022-12-18T11:08:21;100096.61;;;33.83;29.92
76484;BME280;65318;-33.924;18.406;2022-12-18T11:10:47;100095.19;;;33.72;29.98
76484;BME280;65318;-33.924;18.406;2022-12-18T11:13:15;100092.96;;;33.78;29.97
76484;BME280;65318;-33.924;18.406;2022-12-18T11:15:33;100088.77;;;33.73;29.98
76484;BME280;65318;-33.924;18.406;2022-12-18T11:17:58;100086.15;;;33.49;30.24
76484;BME280;65318;-33.924;18.406;2022-12-18T11:20:31;100089.64;;;33.67;29.87
76484;BME280;65318;-33.924;18.406;2022-12-18T11:22:55;100094.86;;;34.01;29.78
76484;BME280;65318;-33.924;18.406;2022-12-18T11:25:19;100093.72;;;33.76;29.78
76484;BME280;65318;-33.924;18.406;2022-12-18T11:27:40;100088.08;;;33.80;29.95
76484;BME280;65318;-33.924;18.406;2022-12-18T11:30:13;100087.70;;;33.68;30.09
76484;BME280;65318;-33.924;18.406;2022-12-18T11:32:34;100088.04;;;33.66;30.16
76484;BME280;65318;-33.924;18.406;2022-12-18T11:35:01;100084.71;;;33.42;30.38
76484;BME280;65318;-33.924;18.406;2022-12-18T11:37:21;100082.85;;;33.39;30.43
76484;BME280;65318;-33.924;18.406;2022-12-18T11:39:51;100088.10;;;33.65;30.47
76484;BME280;65318;-33.924;18.406;2022-12-18T11:42:16;100083.69;;;33.34;30.54
76484;BME280;65318;-33.924;18.406;2022-12-18T11:44:43;100086.02;;;32.57;31.21
76484;BME280;65318;-33.924;18.406;2022-12-18T11:47:12;100078.33;;;33.52;29.84
76484;BME280;65318;-33.924;18.406;2022-12-18T11:49:33;100072.50;;;32.85;30.36
76484;BME280;65318;-33.924;18.406;2022-12-18T11:52:00;100070.65;;;32.98;29.80
76484;BME280;65318;-33.924;18.406;2022-12-18T11:54:19;100071.40;;;33.36;29.50
76484;BME280;65318;-33.924;18.406;2022-12-18T11:56:48;100066.12;;;33.56;29.49
76484;BME280;65318;-33.924;18.406;2022-12-18T11:59:16;100053.02;;;31.83;31.21
76484;BME280;65318;-33.924;18.406;2022-12-18T12:01:43;100037.12;;;30.82;32.93
76484;BME280;65318;-33.924;18.406;2022-12-18T12:04:16;100060.83;;;31.89;31.79
76484;BME280;65318;-33.924;18.406;2022-12-18T12:06:32;100060.57;;;32.30;31.10
76484;BME280;65318;-33.924;18.406;2022-12-18T12:09:00;100056.04;;;32.29;31.24
76484;BME280;65318;-33.924;18.406;2022-12-18T12:11:21;100050.51;;;32.79;30.52
76484;BME280;65318;-33.924;18.406;2022-12-18T12:14:01;100057.86;;;33.23;29.97
76484;BME280;65318;-33.924;18.406;2022-12-18T12:16:16;100054.48;;;33.04;30.22
76484;BME280;65318;-33.924;18.406;2022-12-18T12:18:43;100060.96;;;33.20;30.20
76484;BME280;65318;-33.924;18.406;2022-12-18T12:21:04;100065.98;;;32.78;30.36
76484;BME280;65318;-33.924;18.406;2022-12-18T12:23:32;100062.15;;;32.46;30.83